VOE5EM LFRS-LFLL
Flight info
| Callsign | VOE5EM |
|---|---|
| Flight time | 0h 56m |
| Altitude | 27000 |
| Route | LUGEN UM616 TUPAR DCT DIDRU DCT BEBIX DCT VALKU DCT LABAL DCT LESPI |
| Aircraft | A320/M-SDFGHIJ1RWY/LB1 |
Departure
| Time | 2026-05-05 18:45 |
|---|---|
| Airport | Nantes Atlantique Airport (LFRS) |
Arrival
| Time | 2026-05-05 19:42 |
|---|---|
| Airport | Lyon Saint-Exupéry Airport (LFLL) |
| Time | Latitude | Longitude | Altitude | Speed | Heading |
|---|---|---|---|---|---|
| 2026-05-05 18:01 | 47.15895 | -1.60255 | 90 ft | 0 kts | 117° |
| 2026-05-05 18:35 | 47.15900 | -1.60269 | 90 ft | 4 kts | 117° |
| 2026-05-05 18:36 | 47.15910 | -1.60298 | 90 ft | 3 kts | 118° |
| 2026-05-05 18:36 | 47.15925 | -1.60327 | 91 ft | 4 kts | 156° |
| 2026-05-05 18:36 | 47.15945 | -1.60327 | 89 ft | 4 kts | 207° |
| 2026-05-05 18:36 | 47.15961 | -1.60315 | 91 ft | 0 kts | 207° |
| 2026-05-05 18:39 | 47.15952 | -1.60321 | 92 ft | 5 kts | 207° |
| 2026-05-05 18:40 | 47.15911 | -1.60351 | 91 ft | 6 kts | 207° |
| 2026-05-05 18:40 | 47.15871 | -1.60381 | 89 ft | 8 kts | 207° |
| 2026-05-05 18:40 | 47.15794 | -1.60441 | 90 ft | 17 kts | 207° |
| 2026-05-05 18:40 | 47.15691 | -1.60520 | 90 ft | 16 kts | 207° |
| 2026-05-05 18:41 | 47.15593 | -1.60595 | 91 ft | 17 kts | 207° |
| 2026-05-05 18:41 | 47.15476 | -1.60684 | 91 ft | 21 kts | 207° |
| 2026-05-05 18:41 | 47.15343 | -1.60786 | 92 ft | 21 kts | 208° |
| 2026-05-05 18:41 | 47.15211 | -1.60887 | 91 ft | 22 kts | 207° |
| 2026-05-05 18:42 | 47.15075 | -1.60991 | 89 ft | 23 kts | 207° |
| 2026-05-05 18:42 | 47.14928 | -1.61101 | 89 ft | 24 kts | 207° |
| 2026-05-05 18:42 | 47.14782 | -1.61214 | 91 ft | 24 kts | 207° |
| 2026-05-05 18:42 | 47.14638 | -1.61322 | 89 ft | 23 kts | 207° |
| 2026-05-05 18:43 | 47.14496 | -1.61431 | 89 ft | 23 kts | 207° |
| 2026-05-05 18:43 | 47.14350 | -1.61542 | 87 ft | 25 kts | 207° |
| 2026-05-05 18:43 | 47.14233 | -1.61631 | 85 ft | 11 kts | 207° |
| 2026-05-05 18:43 | 47.14173 | -1.61693 | 83 ft | 10 kts | 237° |
| 2026-05-05 18:44 | 47.14145 | -1.61799 | 83 ft | 12 kts | 253° |
| 2026-05-05 18:44 | 47.14157 | -1.61912 | 85 ft | 9 kts | 296° |
| 2026-05-05 18:44 | 47.14207 | -1.61918 | 86 ft | 9 kts | 28° |
| 2026-05-05 18:44 | 47.14220 | -1.61908 | 87 ft | 6 kts | 28° |
| 2026-05-05 18:45 | 47.14484 | -1.61708 | 89 ft | 78 kts | 27° |
| 2026-05-05 18:45 | 47.15151 | -1.61199 | 87 ft | 136 kts | 27° |
| 2026-05-05 18:45 | 47.16113 | -1.60492 | 330 ft | 160 kts | 24° |
| 2026-05-05 18:45 | 47.17039 | -1.59574 | 976 ft | 168 kts | 53° |
| 2026-05-05 18:46 | 47.17234 | -1.57876 | 1680 ft | 181 kts | 102° |
| 2026-05-05 18:46 | 47.16442 | -1.56318 | 2098 ft | 209 kts | 139° |
| 2026-05-05 18:46 | 47.15143 | -1.55106 | 2412 ft | 233 kts | 148° |
| 2026-05-05 18:46 | 47.13609 | -1.53936 | 2669 ft | 263 kts | 152° |
| 2026-05-05 18:47 | 47.11911 | -1.52745 | 3341 ft | 275 kts | 153° |
| 2026-05-05 18:47 | 47.10168 | -1.51534 | 4236 ft | 279 kts | 153° |
| 2026-05-05 18:47 | 47.08417 | -1.50257 | 5115 ft | 283 kts | 153° |
| 2026-05-05 18:47 | 47.06695 | -1.48825 | 6050 ft | 286 kts | 142° |
| 2026-05-05 18:48 | 47.05178 | -1.46908 | 6901 ft | 289 kts | 139° |
| 2026-05-05 18:48 | 47.03689 | -1.44940 | 7864 ft | 288 kts | 137° |
| 2026-05-05 18:48 | 47.02187 | -1.42933 | 8600 ft | 296 kts | 138° |
| 2026-05-05 18:48 | 47.00650 | -1.40903 | 9416 ft | 299 kts | 138° |
| 2026-05-05 18:49 | 46.99095 | -1.38862 | 10161 ft | 305 kts | 139° |
| 2026-05-05 18:49 | 46.97449 | -1.36713 | 10404 ft | 328 kts | 139° |
| 2026-05-05 18:49 | 46.95687 | -1.34424 | 10724 ft | 346 kts | 139° |
| 2026-05-05 18:49 | 46.93875 | -1.32069 | 11423 ft | 350 kts | 139° |
| 2026-05-05 18:50 | 46.92067 | -1.29716 | 12115 ft | 355 kts | 139° |
| 2026-05-05 18:50 | 46.90214 | -1.27304 | 12854 ft | 358 kts | 139° |
| 2026-05-05 18:50 | 46.88349 | -1.24880 | 13637 ft | 359 kts | 139° |
| 2026-05-05 18:50 | 46.86475 | -1.22449 | 14322 ft | 361 kts | 139° |
| 2026-05-05 18:51 | 46.84592 | -1.20014 | 14996 ft | 363 kts | 139° |
| 2026-05-05 18:51 | 46.82691 | -1.17558 | 15646 ft | 366 kts | 139° |
| 2026-05-05 18:51 | 46.80780 | -1.15080 | 16260 ft | 370 kts | 139° |
| 2026-05-05 18:51 | 46.78850 | -1.12576 | 16868 ft | 373 kts | 139° |
| 2026-05-05 18:52 | 46.76901 | -1.10053 | 17480 ft | 376 kts | 138° |
| 2026-05-05 18:52 | 46.74938 | -1.07513 | 18110 ft | 379 kts | 138° |
| 2026-05-05 18:52 | 46.72960 | -1.04953 | 18649 ft | 381 kts | 138° |
| 2026-05-05 18:52 | 46.70970 | -1.02378 | 19201 ft | 384 kts | 137° |
| 2026-05-05 18:53 | 46.68965 | -0.99788 | 19784 ft | 385 kts | 137° |
| 2026-05-05 18:53 | 46.66956 | -0.97198 | 20385 ft | 386 kts | 137° |
| 2026-05-05 18:53 | 46.64937 | -0.94602 | 20958 ft | 388 kts | 137° |
| 2026-05-05 18:53 | 46.62911 | -0.91997 | 21533 ft | 390 kts | 137° |
| 2026-05-05 18:54 | 46.60872 | -0.89380 | 22073 ft | 392 kts | 137° |
| 2026-05-05 18:54 | 46.58821 | -0.86745 | 22606 ft | 395 kts | 137° |
| 2026-05-05 18:54 | 46.56760 | -0.84094 | 23135 ft | 397 kts | 137° |
| 2026-05-05 18:54 | 46.54692 | -0.81428 | 23632 ft | 399 kts | 137° |
| 2026-05-05 18:55 | 46.52616 | -0.78748 | 24054 ft | 400 kts | 137° |
| 2026-05-05 18:55 | 46.50530 | -0.76057 | 24460 ft | 402 kts | 137° |
| 2026-05-05 18:55 | 46.48438 | -0.73363 | 24850 ft | 404 kts | 136° |
| 2026-05-05 18:55 | 46.46327 | -0.70654 | 25236 ft | 406 kts | 136° |
| 2026-05-05 18:56 | 46.44249 | -0.67860 | 25608 ft | 407 kts | 131° |
| 2026-05-05 18:56 | 46.42481 | -0.64667 | 25979 ft | 406 kts | 121° |
| 2026-05-05 18:56 | 46.41107 | -0.61161 | 26344 ft | 406 kts | 115° |
| 2026-05-05 18:56 | 46.39808 | -0.57449 | 26726 ft | 408 kts | 115° |
| 2026-05-05 18:57 | 46.38519 | -0.53786 | 26872 ft | 407 kts | 115° |
| 2026-05-05 18:57 | 46.37267 | -0.50250 | 26893 ft | 396 kts | 115° |
| 2026-05-05 18:57 | 46.36012 | -0.46720 | 26897 ft | 393 kts | 115° |
| 2026-05-05 18:57 | 46.34760 | -0.43201 | 26892 ft | 393 kts | 115° |
| 2026-05-05 18:58 | 46.33509 | -0.39683 | 26893 ft | 393 kts | 115° |
| 2026-05-05 18:58 | 46.32255 | -0.36162 | 26891 ft | 393 kts | 115° |
| 2026-05-05 18:58 | 46.31004 | -0.32653 | 26893 ft | 393 kts | 115° |
| 2026-05-05 18:58 | 46.29751 | -0.29141 | 26894 ft | 393 kts | 115° |
| 2026-05-05 18:59 | 46.28496 | -0.25624 | 26893 ft | 393 kts | 115° |
| 2026-05-05 18:59 | 46.27241 | -0.22114 | 26894 ft | 393 kts | 115° |
| 2026-05-05 18:59 | 46.25983 | -0.18609 | 26891 ft | 393 kts | 116° |
| 2026-05-05 18:59 | 46.24723 | -0.15106 | 26892 ft | 393 kts | 116° |
| 2026-05-05 19:00 | 46.23465 | -0.11611 | 26891 ft | 393 kts | 116° |
| 2026-05-05 19:00 | 46.22204 | -0.08109 | 26890 ft | 392 kts | 116° |
| 2026-05-05 19:00 | 46.20950 | -0.04617 | 26887 ft | 392 kts | 115° |
| 2026-05-05 19:00 | 46.19692 | -0.01117 | 26893 ft | 392 kts | 116° |
| 2026-05-05 19:01 | 46.18490 | 0.02404 | 26877 ft | 392 kts | 111° |
| 2026-05-05 19:01 | 46.17661 | 0.06140 | 26875 ft | 391 kts | 102° |
| 2026-05-05 19:01 | 46.17042 | 0.09973 | 26872 ft | 392 kts | 103° |
| 2026-05-05 19:01 | 46.16420 | 0.13802 | 26873 ft | 393 kts | 103° |
| 2026-05-05 19:02 | 46.15791 | 0.17634 | 26871 ft | 394 kts | 104° |
| 2026-05-05 19:02 | 46.15156 | 0.21483 | 26871 ft | 394 kts | 104° |
| 2026-05-05 19:02 | 46.14521 | 0.25324 | 26873 ft | 395 kts | 104° |
| 2026-05-05 19:02 | 46.13883 | 0.29166 | 26870 ft | 395 kts | 104° |
| 2026-05-05 19:03 | 46.13241 | 0.33024 | 26876 ft | 395 kts | 104° |
| 2026-05-05 19:03 | 46.12596 | 0.36874 | 26876 ft | 395 kts | 104° |
| 2026-05-05 19:03 | 46.11952 | 0.40727 | 26867 ft | 396 kts | 104° |
| 2026-05-05 19:03 | 46.11308 | 0.44583 | 26868 ft | 396 kts | 105° |
| 2026-05-05 19:04 | 46.10672 | 0.48397 | 26869 ft | 397 kts | 105° |
| 2026-05-05 19:04 | 46.10027 | 0.52267 | 26870 ft | 398 kts | 105° |
| 2026-05-05 19:04 | 46.09378 | 0.56141 | 26872 ft | 398 kts | 105° |
| 2026-05-05 19:04 | 46.08722 | 0.60017 | 26874 ft | 398 kts | 105° |
| 2026-05-05 19:05 | 46.08064 | 0.63893 | 26868 ft | 399 kts | 105° |
| 2026-05-05 19:05 | 46.07405 | 0.67779 | 26876 ft | 399 kts | 105° |
| 2026-05-05 19:05 | 46.06961 | 0.70397 | 26878 ft | 399 kts | 105° |
| 2026-05-05 19:05 | 46.06088 | 0.75541 | 26879 ft | 399 kts | 105° |
| 2026-05-05 19:06 | 46.05642 | 0.78159 | 26888 ft | 399 kts | 105° |
| 2026-05-05 19:06 | 46.04979 | 0.82041 | 26875 ft | 400 kts | 105° |
| 2026-05-05 19:06 | 46.04315 | 0.85929 | 26873 ft | 400 kts | 105° |
| 2026-05-05 19:06 | 46.03647 | 0.89817 | 26878 ft | 400 kts | 105° |
| 2026-05-05 19:07 | 46.02979 | 0.93708 | 26880 ft | 401 kts | 105° |
| 2026-05-05 19:07 | 46.02317 | 0.97549 | 26893 ft | 401 kts | 105° |
| 2026-05-05 19:07 | 46.01645 | 1.01444 | 26889 ft | 401 kts | 105° |
| 2026-05-05 19:07 | 46.00970 | 1.05340 | 26892 ft | 402 kts | 105° |
| 2026-05-05 19:08 | 46.00296 | 1.09237 | 26896 ft | 402 kts | 105° |
| 2026-05-05 19:08 | 45.99621 | 1.13135 | 26901 ft | 402 kts | 105° |
| 2026-05-05 19:08 | 45.98942 | 1.17034 | 26900 ft | 402 kts | 106° |
| 2026-05-05 19:08 | 45.98261 | 1.20930 | 26889 ft | 402 kts | 106° |
| 2026-05-05 19:09 | 45.97577 | 1.24837 | 26891 ft | 403 kts | 106° |
| 2026-05-05 19:09 | 45.96891 | 1.28740 | 26894 ft | 403 kts | 106° |
| 2026-05-05 19:09 | 45.96203 | 1.32645 | 26895 ft | 403 kts | 107° |
| 2026-05-05 19:09 | 45.95519 | 1.36553 | 26897 ft | 404 kts | 105° |
| 2026-05-05 19:10 | 45.95084 | 1.40547 | 26897 ft | 407 kts | 96° |
| 2026-05-05 19:10 | 45.95106 | 1.44621 | 26897 ft | 409 kts | 89° |
| 2026-05-05 19:10 | 45.95278 | 1.48702 | 26898 ft | 409 kts | 89° |
| 2026-05-05 19:10 | 45.95443 | 1.52793 | 26897 ft | 410 kts | 89° |
| 2026-05-05 19:11 | 45.95604 | 1.56880 | 26897 ft | 410 kts | 89° |
| 2026-05-05 19:11 | 45.95762 | 1.60967 | 26883 ft | 410 kts | 90° |
| 2026-05-05 19:11 | 45.95919 | 1.65062 | 26880 ft | 411 kts | 90° |
| 2026-05-05 19:11 | 45.96072 | 1.69164 | 26880 ft | 411 kts | 89° |
| 2026-05-05 19:12 | 45.96222 | 1.73271 | 26888 ft | 412 kts | 89° |
| 2026-05-05 19:12 | 45.96374 | 1.77381 | 26891 ft | 412 kts | 89° |
| 2026-05-05 19:12 | 45.96528 | 1.81493 | 26894 ft | 412 kts | 89° |
| 2026-05-05 19:12 | 45.96683 | 1.85609 | 26896 ft | 412 kts | 89° |
| 2026-05-05 19:13 | 45.96836 | 1.89725 | 26892 ft | 412 kts | 89° |
| 2026-05-05 19:13 | 45.96988 | 1.93848 | 26896 ft | 413 kts | 89° |
| 2026-05-05 19:13 | 45.97137 | 1.97966 | 26887 ft | 413 kts | 89° |
| 2026-05-05 19:13 | 45.97284 | 2.02086 | 26887 ft | 413 kts | 90° |
| 2026-05-05 19:14 | 45.97429 | 2.06210 | 26887 ft | 414 kts | 90° |
| 2026-05-05 19:14 | 45.97571 | 2.10287 | 26886 ft | 414 kts | 90° |
| 2026-05-05 19:14 | 45.97714 | 2.14475 | 26888 ft | 414 kts | 90° |
| 2026-05-05 19:14 | 45.97855 | 2.18613 | 26890 ft | 415 kts | 90° |
| 2026-05-05 19:15 | 45.97993 | 2.22699 | 26885 ft | 415 kts | 90° |
| 2026-05-05 19:15 | 45.98132 | 2.26898 | 26886 ft | 415 kts | 90° |
| 2026-05-05 19:15 | 45.98271 | 2.30986 | 26889 ft | 415 kts | 89° |
| 2026-05-05 19:15 | 45.98507 | 2.35125 | 26891 ft | 416 kts | 86° |
| 2026-05-05 19:16 | 45.98848 | 2.39257 | 26869 ft | 417 kts | 85° |
| 2026-05-05 19:16 | 45.99248 | 2.43387 | 26873 ft | 417 kts | 84° |
| 2026-05-05 19:16 | 45.99666 | 2.47514 | 26876 ft | 417 kts | 84° |
| 2026-05-05 19:16 | 46.00074 | 2.51645 | 26878 ft | 417 kts | 85° |
| 2026-05-05 19:17 | 46.00460 | 2.55779 | 26879 ft | 417 kts | 85° |
| 2026-05-05 19:17 | 46.00828 | 2.59920 | 26880 ft | 417 kts | 85° |
| 2026-05-05 19:17 | 46.01180 | 2.64059 | 26882 ft | 417 kts | 86° |
| 2026-05-05 19:17 | 46.01395 | 2.68202 | 26882 ft | 414 kts | 95° |
| 2026-05-05 19:18 | 46.01262 | 2.72328 | 26876 ft | 413 kts | 96° |
| 2026-05-05 19:18 | 46.01118 | 2.76454 | 26882 ft | 413 kts | 96° |
| 2026-05-05 19:18 | 46.00972 | 2.80580 | 26863 ft | 413 kts | 96° |
| 2026-05-05 19:18 | 46.00838 | 2.84712 | 26861 ft | 414 kts | 96° |
| 2026-05-05 19:19 | 46.00734 | 2.88853 | 26870 ft | 415 kts | 95° |
| 2026-05-05 19:19 | 46.00650 | 2.93003 | 26869 ft | 415 kts | 95° |
| 2026-05-05 19:19 | 46.00573 | 2.97154 | 26876 ft | 415 kts | 95° |
| 2026-05-05 19:19 | 46.00491 | 3.01306 | 26862 ft | 415 kts | 95° |
| 2026-05-05 19:20 | 46.00403 | 3.05462 | 26873 ft | 415 kts | 95° |
| 2026-05-05 19:20 | 46.00307 | 3.09613 | 26875 ft | 415 kts | 95° |
| 2026-05-05 19:20 | 46.00204 | 3.13761 | 26882 ft | 415 kts | 95° |
| 2026-05-05 19:20 | 46.00095 | 3.17911 | 26865 ft | 415 kts | 96° |
| 2026-05-05 19:21 | 45.99986 | 3.22061 | 26861 ft | 416 kts | 95° |
| 2026-05-05 19:21 | 45.99878 | 3.26216 | 26867 ft | 416 kts | 95° |
| 2026-05-05 19:21 | 45.99771 | 3.30382 | 26828 ft | 415 kts | 95° |
| 2026-05-05 19:21 | 45.99667 | 3.34496 | 26514 ft | 408 kts | 95° |
| 2026-05-05 19:22 | 45.99561 | 3.38553 | 26036 ft | 404 kts | 95° |
| 2026-05-05 19:22 | 45.99453 | 3.42571 | 25582 ft | 401 kts | 95° |
| 2026-05-05 19:22 | 45.99345 | 3.46555 | 25123 ft | 397 kts | 95° |
| 2026-05-05 19:22 | 45.99238 | 3.50506 | 24675 ft | 394 kts | 95° |
| 2026-05-05 19:23 | 45.99129 | 3.54429 | 24232 ft | 391 kts | 95° |
| 2026-05-05 19:23 | 45.99017 | 3.58325 | 23778 ft | 389 kts | 95° |
| 2026-05-05 19:23 | 45.98903 | 3.62199 | 23303 ft | 386 kts | 95° |
| 2026-05-05 19:23 | 45.98790 | 3.66041 | 22824 ft | 383 kts | 95° |
| 2026-05-05 19:24 | 45.98680 | 3.69852 | 22373 ft | 379 kts | 95° |
| 2026-05-05 19:24 | 45.98572 | 3.73619 | 21927 ft | 376 kts | 95° |
| 2026-05-05 19:24 | 45.98461 | 3.77348 | 21471 ft | 373 kts | 95° |
| 2026-05-05 19:24 | 45.98346 | 3.81062 | 21023 ft | 370 kts | 95° |
| 2026-05-05 19:25 | 45.98230 | 3.84746 | 20561 ft | 368 kts | 95° |
| 2026-05-05 19:25 | 45.98117 | 3.88355 | 20114 ft | 366 kts | 95° |
| 2026-05-05 19:25 | 45.98004 | 3.92006 | 19657 ft | 364 kts | 95° |
| 2026-05-05 19:25 | 45.97890 | 3.95631 | 19188 ft | 363 kts | 95° |
| 2026-05-05 19:26 | 45.97775 | 3.99246 | 18748 ft | 361 kts | 95° |
| 2026-05-05 19:26 | 45.97658 | 4.02846 | 18300 ft | 360 kts | 95° |
| 2026-05-05 19:26 | 45.97539 | 4.06440 | 17814 ft | 359 kts | 95° |
| 2026-05-05 19:26 | 45.97421 | 4.10014 | 17367 ft | 357 kts | 95° |
| 2026-05-05 19:27 | 45.97305 | 4.13562 | 16926 ft | 354 kts | 95° |
| 2026-05-05 19:27 | 45.97188 | 4.17086 | 16498 ft | 352 kts | 95° |
| 2026-05-05 19:27 | 45.97069 | 4.20590 | 16067 ft | 351 kts | 95° |
| 2026-05-05 19:27 | 45.96949 | 4.24087 | 15646 ft | 349 kts | 95° |
| 2026-05-05 19:28 | 45.96899 | 4.27570 | 15216 ft | 349 kts | 86° |
| 2026-05-05 19:28 | 45.97357 | 4.31002 | 14807 ft | 350 kts | 78° |
| 2026-05-05 19:28 | 45.97933 | 4.34384 | 14372 ft | 344 kts | 78° |
| 2026-05-05 19:28 | 45.98499 | 4.37665 | 13946 ft | 332 kts | 78° |
| 2026-05-05 19:29 | 45.99049 | 4.40832 | 13526 ft | 322 kts | 78° |
| 2026-05-05 19:29 | 45.99585 | 4.43928 | 13065 ft | 316 kts | 78° |
| 2026-05-05 19:29 | 46.00112 | 4.46974 | 12479 ft | 312 kts | 78° |
| 2026-05-05 19:29 | 46.00635 | 4.50003 | 12013 ft | 313 kts | 78° |
| 2026-05-05 19:30 | 46.01151 | 4.53011 | 11558 ft | 315 kts | 78° |
| 2026-05-05 19:30 | 46.01674 | 4.56064 | 11236 ft | 312 kts | 78° |
| 2026-05-05 19:30 | 46.02185 | 4.59056 | 10985 ft | 306 kts | 78° |
| 2026-05-05 19:30 | 46.02690 | 4.62015 | 10649 ft | 303 kts | 78° |
| 2026-05-05 19:31 | 46.03190 | 4.64957 | 10302 ft | 302 kts | 78° |
| 2026-05-05 19:31 | 46.03685 | 4.67878 | 10026 ft | 297 kts | 78° |
| 2026-05-05 19:31 | 46.04167 | 4.70719 | 9903 ft | 287 kts | 78° |
| 2026-05-05 19:31 | 46.04633 | 4.73464 | 9780 ft | 277 kts | 78° |
| 2026-05-05 19:32 | 46.05084 | 4.76108 | 9562 ft | 267 kts | 78° |
| 2026-05-05 19:32 | 46.05524 | 4.78680 | 9047 ft | 263 kts | 78° |
| 2026-05-05 19:32 | 46.05959 | 4.81223 | 8502 ft | 261 kts | 78° |
| 2026-05-05 19:32 | 46.06385 | 4.83747 | 7964 ft | 258 kts | 78° |
| 2026-05-05 19:33 | 46.06802 | 4.86249 | 7424 ft | 256 kts | 78° |
| 2026-05-05 19:33 | 46.07209 | 4.88729 | 6898 ft | 253 kts | 78° |
| 2026-05-05 19:33 | 46.07608 | 4.91186 | 6382 ft | 251 kts | 78° |
| 2026-05-05 19:33 | 46.07992 | 4.93581 | 6166 ft | 239 kts | 78° |
| 2026-05-05 19:34 | 46.08358 | 4.95871 | 6035 ft | 231 kts | 78° |
| 2026-05-05 19:34 | 46.08714 | 4.98113 | 5935 ft | 228 kts | 78° |
| 2026-05-05 19:34 | 46.08821 | 5.00358 | 5863 ft | 224 kts | 103° |
| 2026-05-05 19:35 | 46.07270 | 5.04095 | 5870 ft | 220 kts | 145° |
| 2026-05-05 19:35 | 46.05932 | 5.05103 | 5685 ft | 217 kts | 167° |
| 2026-05-05 19:35 | 46.04450 | 5.05410 | 5324 ft | 217 kts | 177° |
| 2026-05-05 19:35 | 46.02930 | 5.05589 | 4915 ft | 221 kts | 177° |
| 2026-05-05 19:36 | 46.01379 | 5.05775 | 4477 ft | 227 kts | 177° |
| 2026-05-05 19:36 | 45.99812 | 5.05967 | 4022 ft | 224 kts | 177° |
| 2026-05-05 19:36 | 45.98304 | 5.06154 | 3786 ft | 212 kts | 177° |
| 2026-05-05 19:36 | 45.96852 | 5.06332 | 3406 ft | 208 kts | 177° |
| 2026-05-05 19:37 | 45.95450 | 5.06504 | 3246 ft | 194 kts | 177° |
| 2026-05-05 19:37 | 45.94138 | 5.06666 | 3120 ft | 187 kts | 177° |
| 2026-05-05 19:37 | 45.92849 | 5.06823 | 3030 ft | 182 kts | 177° |
| 2026-05-05 19:37 | 45.91632 | 5.06973 | 3000 ft | 171 kts | 177° |
| 2026-05-05 19:38 | 45.90461 | 5.07116 | 2984 ft | 167 kts | 177° |
| 2026-05-05 19:38 | 45.89314 | 5.07256 | 3000 ft | 165 kts | 177° |
| 2026-05-05 19:38 | 45.88166 | 5.07396 | 3007 ft | 165 kts | 177° |
| 2026-05-05 19:38 | 45.87023 | 5.07536 | 3006 ft | 165 kts | 177° |
| 2026-05-05 19:39 | 45.85896 | 5.07674 | 3006 ft | 165 kts | 177° |
| 2026-05-05 19:39 | 45.84754 | 5.07813 | 2947 ft | 165 kts | 177° |
| 2026-05-05 19:39 | 45.83614 | 5.07952 | 2787 ft | 164 kts | 177° |
| 2026-05-05 19:39 | 45.82482 | 5.08091 | 2584 ft | 163 kts | 176° |
| 2026-05-05 19:40 | 45.81360 | 5.08228 | 2402 ft | 161 kts | 176° |
| 2026-05-05 19:40 | 45.80245 | 5.08364 | 2168 ft | 160 kts | 176° |
| 2026-05-05 19:40 | 45.79185 | 5.08494 | 1951 ft | 147 kts | 176° |
| 2026-05-05 19:40 | 45.78192 | 5.08615 | 1758 ft | 141 kts | 176° |
| 2026-05-05 19:41 | 45.77219 | 5.08732 | 1563 ft | 140 kts | 175° |
| 2026-05-05 19:41 | 45.76253 | 5.08849 | 1355 ft | 139 kts | 175° |
| 2026-05-05 19:41 | 45.75297 | 5.08967 | 1172 ft | 137 kts | 175° |
| 2026-05-05 19:41 | 45.74350 | 5.09082 | 983 ft | 136 kts | 175° |
| 2026-05-05 19:42 | 45.73413 | 5.09194 | 823 ft | 134 kts | 175° |
| 2026-05-05 19:42 | 45.72564 | 5.09302 | 811 ft | 95 kts | 175° |
| 2026-05-05 19:42 | 45.72168 | 5.09348 | 813 ft | 38 kts | 175° |
| 2026-05-05 19:42 | 45.71908 | 5.09373 | 820 ft | 35 kts | 184° |
| 2026-05-05 19:43 | 45.71706 | 5.09293 | 819 ft | 24 kts | 203° |
| 2026-05-05 19:43 | 45.71637 | 5.09180 | 812 ft | 16 kts | 262° |
| 2026-05-05 19:43 | 45.71631 | 5.09088 | 814 ft | 7 kts | 264° |
| 2026-05-05 19:43 | 45.71627 | 5.09021 | 814 ft | 8 kts | 264° |
| 2026-05-05 19:44 | 45.71620 | 5.08928 | 814 ft | 9 kts | 264° |
| 2026-05-05 19:44 | 45.71614 | 5.08841 | 813 ft | 9 kts | 264° |
| 2026-05-05 19:44 | 45.71610 | 5.08768 | 810 ft | 0 kts | 266° |
| 2026-05-05 19:44 | 45.71609 | 5.08741 | 809 ft | 0 kts | 266° |
| 2026-05-05 19:45 | 45.71608 | 5.08736 | 809 ft | 0 kts | 266° |
| 2026-05-05 19:45 | 45.71608 | 5.08735 | 808 ft | 1 kts | 266° |
| 2026-05-05 19:45 | 45.71614 | 5.08721 | 808 ft | 4 kts | 313° |
| 2026-05-05 19:45 | 45.71682 | 5.08715 | 808 ft | 15 kts | 356° |
| 2026-05-05 19:46 | 45.71786 | 5.08702 | 808 ft | 14 kts | 355° |
| 2026-05-05 19:46 | 45.71859 | 5.08693 | 808 ft | 4 kts | 355° |
| 2026-05-05 19:46 | 45.71887 | 5.08689 | 808 ft | 4 kts | 354° |
| 2026-05-05 19:46 | 45.71917 | 5.08683 | 808 ft | 6 kts | 348° |
| 2026-05-05 19:47 | 45.71950 | 5.08622 | 806 ft | 9 kts | 271° |
| 2026-05-05 19:47 | 45.71946 | 5.08534 | 804 ft | 9 kts | 266° |
| 2026-05-05 19:47 | 45.71943 | 5.08491 | 803 ft | 5 kts | 262° |
| 2026-05-05 19:47 | 45.71946 | 5.08439 | 801 ft | 6 kts | 280° |
| 2026-05-05 19:48 | 45.71956 | 5.08372 | 800 ft | 8 kts | 283° |
| 2026-05-05 19:48 | 45.71967 | 5.08308 | 799 ft | 6 kts | 283° |
| 2026-05-05 19:48 | 45.71965 | 5.08252 | 798 ft | 7 kts | 245° |
| 2026-05-05 19:48 | 45.71929 | 5.08214 | 797 ft | 5 kts | 217° |
| 2026-05-05 19:49 | 45.71926 | 5.08175 | 797 ft | 4 kts | 282° |
| 2026-05-05 19:49 | 45.71930 | 5.08150 | 796 ft | 4 kts | 284° |
| 2026-05-05 19:49 | 45.71937 | 5.08111 | 796 ft | 2 kts | 284° |
| 2026-05-05 19:49 | 45.71941 | 5.08095 | 797 ft | 3 kts | 287° |
| 2026-05-05 19:50 | 45.71943 | 5.08082 | 797 ft | 0 kts | 287° |